createdAt,value
2018-07-26T07:41:39.087Z,0
2018-07-26T07:42:38.991Z,0
2018-07-26T07:43:39.062Z,0
2018-07-26T07:44:38.912Z,0
2018-07-26T07:45:38.873Z,0
2018-07-26T07:47:24.166Z,0
2018-07-26T07:48:23.835Z,0
2018-07-26T07:49:22.859Z,56.5
2018-07-26T07:50:23.757Z,53
2018-07-26T07:51:23.955Z,48.900002
2018-07-26T09:19:27.495Z,0
2018-07-26T09:20:27.483Z,0
2018-07-26T09:22:38.782Z,0
2018-07-26T09:23:38.877Z,0
2018-07-26T09:24:42.119Z,0
2018-07-26T09:26:22.124Z,0
2018-07-26T09:27:22.091Z,0
2018-07-26T09:28:25.241Z,0
2018-07-26T09:29:25.227Z,0
2018-07-26T09:30:22.380Z,0
2018-07-26T09:31:22.261Z,0
2018-07-26T09:32:22.219Z,0
2018-07-26T09:33:22.335Z,0
2018-07-26T09:34:22.309Z,0
2018-07-26T09:35:22.610Z,0
2018-07-26T09:36:22.322Z,115
2018-07-26T09:37:22.263Z,118.19999
2018-07-26T09:38:22.311Z,131.89999
2018-07-26T09:39:22.175Z,133.8
2018-07-26T09:40:22.918Z,103.4
2018-07-26T09:41:22.663Z,116.8
2018-07-26T09:42:22.399Z,120.69999
2018-07-26T09:43:22.891Z,136.89999
2018-07-26T09:44:22.669Z,174.89999
2018-07-26T09:45:22.717Z,171
2018-07-26T09:46:22.823Z,64.199997
2018-07-26T09:47:22.689Z,19.299999
2018-07-26T09:48:22.441Z,20.6
2018-07-26T09:49:22.591Z,6.4
2018-07-26T09:50:22.818Z,4
2018-07-26T09:51:22.520Z,21.6
2018-07-26T09:52:22.619Z,23.1
2018-07-26T10:02:59.901Z,51.700001
2018-07-26T10:04:19.827Z,58
2018-07-26T10:04:59.487Z,51.799999
2018-07-26T10:05:59.559Z,56.400002
2018-07-26T10:06:59.626Z,47.299999
2018-07-26T10:07:59.991Z,56
2018-07-26T10:08:59.638Z,63.599998
2018-07-26T10:09:59.744Z,56.200001
2018-07-26T10:10:59.855Z,72.099998
2018-07-26T10:11:59.786Z,63.200001
2018-07-26T10:13:00.009Z,58.5
2018-07-26T10:13:59.724Z,63.200001
2018-07-26T10:14:59.864Z,59.799999
2018-07-26T10:15:59.747Z,52.5
2018-07-26T10:16:59.860Z,60.200001
2018-07-26T10:17:59.832Z,50.799999
2018-07-26T10:18:59.905Z,44.700001
2018-07-26T10:19:59.817Z,58.099998
2018-07-26T10:20:59.943Z,68.400002
2018-07-26T10:21:59.808Z,57.900002
2018-07-26T10:23:00.187Z,53.799999
